createdAt,value
2018-01-15T00:02:20.765Z,3.40
2018-01-15T00:04:48.327Z,3.40
2018-01-15T00:07:15.869Z,3.40
2018-01-15T00:09:43.435Z,3.40
2018-01-15T00:14:45.003Z,3.40
2018-01-15T00:17:12.549Z,3.40
2018-01-15T00:19:40.554Z,3.40
2018-01-15T00:22:08.111Z,3.40
2018-01-15T00:24:35.673Z,3.40
2018-01-15T00:27:03.263Z,3.50
2018-01-15T00:29:30.813Z,3.40
2018-01-15T00:31:58.880Z,3.40
2018-01-15T00:34:26.449Z,3.50
2018-01-15T00:36:53.989Z,3.50
2018-01-15T00:39:21.559Z,3.40
2018-01-15T00:41:49.104Z,3.40
2018-01-15T00:44:16.686Z,3.40
2018-01-15T00:46:44.250Z,3.40
2018-01-15T00:49:11.872Z,3.40
2018-01-15T00:51:39.617Z,3.40
2018-01-15T00:54:07.617Z,3.40
2018-01-15T00:56:35.176Z,3.40
2018-01-15T00:59:02.856Z,3.40
2018-01-15T01:01:31.933Z,3.40
2018-01-15T01:03:59.488Z,3.40
2018-01-15T01:09:01.682Z,3.40
2018-01-15T01:11:29.825Z,3.40
2018-01-15T01:13:57.566Z,3.40
2018-01-15T01:16:25.893Z,3.40
2018-01-15T01:18:53.468Z,3.30
2018-01-15T01:21:21.021Z,3.40
2018-01-15T01:23:48.623Z,3.40
2018-01-15T01:26:16.928Z,3.40
2018-01-15T01:28:44.929Z,3.30
2018-01-15T01:31:12.477Z,3.30
2018-01-15T01:33:40.192Z,3.40
2018-01-15T01:36:07.780Z,3.30
2018-01-15T01:38:35.329Z,3.30
2018-01-15T01:41:02.954Z,3.30
2018-01-15T01:43:30.506Z,3.30
2018-01-15T01:45:58.091Z,3.40
2018-01-15T01:48:25.651Z,3.40
2018-01-15T01:50:54.288Z,3.40
2018-01-15T01:53:21.839Z,3.40
2018-01-15T01:55:49.389Z,3.40
2018-01-15T01:58:16.981Z,3.40
2018-01-15T02:00:46.030Z,3.40
2018-01-15T02:03:13.594Z,3.40
2018-01-15T02:05:41.141Z,3.40
2018-01-15T02:08:08.984Z,3.40
2018-01-15T02:10:37.313Z,3.40
2018-01-15T02:13:04.840Z,3.40
2018-01-15T02:15:32.446Z,3.40
2018-01-15T02:18:00.003Z,3.40
2018-01-15T02:20:27.580Z,3.40
2018-01-15T02:22:55.125Z,3.40
2018-01-15T02:25:23.177Z,3.40
2018-01-15T02:27:50.901Z,3.40
2018-01-15T02:30:19.206Z,3.40
2018-01-15T02:32:46.788Z,3.40
2018-01-15T02:35:14.569Z,3.40
2018-01-15T02:37:42.146Z,3.50
2018-01-15T02:40:10.472Z,3.40
2018-01-15T02:42:38.073Z,3.40
2018-01-15T02:45:05.608Z,3.40
2018-01-15T02:47:33.585Z,3.40
2018-01-15T02:50:01.160Z,3.30
2018-01-15T02:52:28.673Z,3.20
2018-01-15T02:54:56.275Z,3.20
2018-01-15T02:57:23.988Z,3.10
2018-01-15T02:59:51.572Z,3.10
2018-01-15T03:02:19.139Z,3.00
2018-01-15T03:04:47.020Z,3.00
2018-01-15T03:07:14.585Z,2.90
2018-01-15T03:09:42.140Z,2.90
2018-01-15T03:12:09.721Z,2.80
2018-01-15T03:14:37.266Z,2.80
2018-01-15T03:17:05.021Z,2.70
2018-01-15T03:19:32.588Z,2.80
2018-01-15T03:22:00.973Z,2.70
2018-01-15T03:24:28.525Z,2.70
2018-01-15T03:26:56.544Z,2.60
2018-01-15T03:29:24.112Z,2.60
2018-01-15T03:31:51.672Z,2.60
2018-01-15T03:34:19.276Z,2.60
2018-01-15T03:36:46.828Z,2.60
2018-01-15T03:39:14.442Z,2.50
2018-01-15T03:41:41.994Z,2.50
2018-01-15T03:44:09.691Z,2.50
2018-01-15T03:46:37.257Z,2.50
2018-01-15T03:49:05.732Z,2.40
2018-01-15T03:51:33.294Z,2.40
2018-01-15T03:54:00.853Z,2.40
2018-01-15T03:56:28.435Z,2.40
2018-01-15T03:58:56.001Z,2.40
2018-01-15T04:01:24.644Z,2.30
2018-01-15T04:03:52.203Z,2.30
2018-01-15T04:06:19.825Z,2.30
2018-01-15T04:08:48.185Z,2.30
2018-01-15T04:11:15.739Z,2.30
2018-01-15T04:13:44.129Z,2.20
2018-01-15T04:16:11.678Z,2.30
2018-01-15T04:18:40.033Z,2.30
2018-01-15T04:21:07.589Z,2.20
2018-01-15T04:23:35.644Z,2.20
2018-01-15T04:26:03.198Z,2.20
2018-01-15T04:28:30.762Z,2.20
2018-01-15T04:30:58.343Z,2.20
2018-01-15T04:33:25.902Z,2.20
2018-01-15T04:35:53.545Z,2.20
2018-01-15T04:38:21.092Z,2.10
2018-01-15T04:40:48.680Z,2.10
2018-01-15T04:43:16.241Z,2.10
2018-01-15T04:45:44.217Z,2.10
2018-01-15T04:48:11.768Z,2.10
2018-01-15T04:50:39.329Z,2.10
2018-01-15T04:53:06.971Z,2.10
2018-01-15T04:55:34.753Z,2.00
2018-01-15T04:58:02.343Z,2.00
2018-01-15T05:00:30.659Z,2.00
2018-01-15T05:02:58.493Z,2.00
2018-01-15T05:05:26.839Z,2.00
2018-01-15T05:07:54.380Z,2.00
2018-01-15T05:10:22.041Z,2.00
2018-01-15T05:12:50.546Z,1.90
2018-01-15T05:15:18.915Z,1.90
2018-01-15T05:17:46.457Z,1.90
2018-01-15T05:20:14.195Z,1.90
2018-01-15T05:22:41.729Z,1.90
2018-01-15T05:25:09.644Z,1.90
2018-01-15T05:27:37.197Z,1.90
2018-01-15T05:30:04.745Z,1.90
2018-01-15T05:32:32.325Z,1.80
2018-01-15T05:34:59.878Z,1.80
2018-01-15T05:37:27.491Z,1.80
2018-01-15T05:39:55.085Z,1.80
2018-01-15T05:42:22.683Z,1.80
2018-01-15T05:44:50.374Z,1.80
2018-01-15T05:47:19.001Z,1.80
2018-01-15T05:49:46.549Z,1.80
2018-01-15T05:52:14.198Z,1.80
2018-01-15T05:54:41.778Z,1.80
2018-01-15T05:57:09.328Z,1.70
2018-01-15T05:59:36.904Z,1.70
2018-01-15T06:02:04.443Z,1.80
2018-01-15T06:04:31.990Z,1.70
2018-01-15T06:06:59.574Z,1.70
2018-01-15T06:09:27.298Z,1.70
2018-01-15T06:11:54.886Z,1.70
2018-01-15T06:14:22.438Z,1.70
2018-01-15T06:16:50.549Z,1.70
2018-01-15T06:19:18.090Z,1.70
2018-01-15T06:21:45.652Z,1.70
2018-01-15T06:24:13.277Z,1.70
2018-01-15T06:26:40.848Z,1.70
2018-01-15T06:29:08.521Z,1.70
2018-01-15T06:31:36.089Z,1.70
2018-01-15T06:34:04.176Z,1.60
2018-01-15T06:36:31.714Z,1.60
2018-01-15T06:38:59.224Z,1.60
2018-01-15T06:41:26.802Z,1.60
2018-01-15T06:43:55.117Z,1.60
2018-01-15T06:46:22.664Z,1.60
2018-01-15T06:48:50.212Z,1.60
2018-01-15T06:51:17.816Z,1.60
2018-01-15T06:53:45.361Z,1.60
2018-01-15T06:56:12.968Z,1.60
2018-01-15T06:58:41.325Z,1.60
2018-01-15T07:01:08.884Z,1.50
2018-01-15T07:03:36.465Z,1.60
2018-01-15T07:06:04.032Z,1.50
2018-01-15T07:08:32.377Z,1.50
2018-01-15T07:10:59.917Z,1.50
2018-01-15T07:13:27.779Z,1.50
2018-01-15T07:15:55.330Z,1.50
2018-01-15T07:18:22.865Z,1.50
2018-01-15T07:20:50.454Z,1.50
2018-01-15T07:23:18.016Z,1.50
2018-01-15T07:25:45.616Z,1.50
2018-01-15T07:28:13.177Z,1.50
2018-01-15T07:30:40.988Z,1.50
2018-01-15T07:33:08.560Z,1.50
2018-01-15T07:35:36.165Z,1.60
2018-01-15T07:38:03.731Z,1.60
2018-01-15T07:40:31.596Z,1.60
2018-01-15T07:42:59.969Z,1.60
2018-01-15T07:45:27.725Z,1.60
2018-01-15T07:47:55.481Z,1.70
2018-01-15T07:50:23.038Z,1.70
2018-01-15T07:52:51.356Z,1.70
2018-01-15T07:55:19.726Z,1.80
2018-01-15T07:57:47.290Z,1.70
2018-01-15T08:00:15.639Z,1.80
2018-01-15T08:02:43.232Z,1.80
2018-01-15T08:05:10.822Z,1.90
2018-01-15T08:07:38.373Z,1.90
2018-01-15T08:10:05.962Z,2.00
2018-01-15T08:12:33.521Z,2.00
2018-01-15T08:15:01.059Z,2.00
2018-01-15T08:17:28.634Z,2.10
2018-01-15T08:19:56.179Z,2.10
2018-01-15T08:22:24.815Z,2.20
2018-01-15T08:24:52.372Z,2.20
2018-01-15T08:27:20.721Z,2.40
2018-01-15T08:29:48.297Z,2.30
2018-01-15T08:32:15.853Z,2.40
2018-01-15T08:34:43.433Z,2.40
2018-01-15T08:37:11.769Z,2.60
2018-01-15T08:39:39.387Z,2.60
2018-01-15T08:42:06.929Z,2.70
2018-01-15T08:44:34.522Z,2.70
2018-01-15T08:47:02.068Z,2.80
2018-01-15T08:49:29.686Z,2.80
2018-01-15T08:51:58.730Z,2.90
2018-01-15T08:54:26.280Z,2.90
2018-01-15T08:56:53.853Z,3.00
2018-01-15T08:59:21.436Z,3.10
2018-01-15T09:01:49.003Z,3.20
2018-01-15T09:04:16.623Z,3.20
2018-01-15T09:06:44.231Z,3.30
2018-01-15T09:09:11.816Z,3.40
2018-01-15T09:11:39.372Z,3.50
2018-01-15T09:14:07.728Z,3.70
2018-01-15T09:16:35.277Z,3.60
2018-01-15T09:19:02.869Z,3.70
2018-01-15T09:21:30.414Z,3.80
2018-01-15T09:23:58.052Z,3.70
2018-01-15T09:26:25.607Z,3.60
2018-01-15T09:28:53.581Z,3.50
2018-01-15T09:31:21.217Z,3.30
2018-01-15T09:33:48.764Z,3.30
2018-01-15T09:36:16.351Z,3.20
2018-01-15T09:38:43.902Z,3.10
2018-01-15T09:41:11.486Z,3.00
2018-01-15T09:43:39.036Z,3.00
2018-01-15T09:46:07.567Z,3.00
2018-01-15T09:48:35.097Z,2.90
2018-01-15T09:51:02.665Z,2.90
2018-01-15T09:53:30.257Z,2.90
2018-01-15T09:55:58.568Z,3.00
2018-01-15T09:58:26.413Z,3.00
2018-01-15T10:00:53.979Z,3.10
2018-01-15T10:03:21.553Z,3.30
2018-01-15T10:05:49.179Z,3.50
2018-01-15T10:08:16.732Z,3.60
2018-01-15T10:10:45.087Z,3.70
2018-01-15T10:13:13.411Z,3.60
2018-01-15T10:15:41.509Z,3.60
2018-01-15T10:18:09.057Z,3.50
2018-01-15T10:20:36.611Z,3.40
2018-01-15T10:23:04.202Z,3.50
2018-01-15T10:25:31.768Z,3.50
2018-01-15T10:27:59.377Z,3.60
2018-01-15T10:30:27.066Z,3.70
2018-01-15T10:32:54.744Z,3.70
2018-01-15T10:35:22.554Z,3.70
2018-01-15T10:37:50.114Z,3.80
2018-01-15T10:40:18.453Z,3.80
2018-01-15T10:42:46.035Z,3.80
2018-01-15T10:45:14.435Z,3.80
2018-01-15T10:47:42.002Z,3.80
2018-01-15T10:50:09.565Z,3.80
2018-01-15T10:52:37.186Z,3.80
2018-01-15T10:55:04.822Z,3.90
2018-01-15T10:57:32.418Z,3.90
2018-01-15T11:00:00.871Z,3.90
2018-01-15T11:02:28.477Z,3.80
2018-01-15T11:04:56.220Z,3.80
2018-01-15T11:07:24.521Z,3.80
2018-01-15T11:09:52.148Z,3.80
2018-01-15T11:12:19.710Z,3.80
2018-01-15T11:14:47.312Z,3.80
2018-01-15T11:17:14.945Z,3.80
2018-01-15T11:19:43.374Z,3.70
2018-01-15T11:22:11.422Z,3.70
2018-01-15T11:24:39.013Z,3.70
2018-01-15T11:27:06.826Z,3.70
2018-01-15T11:29:35.232Z,3.60
2018-01-15T11:32:03.122Z,3.60
2018-01-15T11:34:30.964Z,3.60
2018-01-15T11:36:58.523Z,3.50
2018-01-15T11:39:26.154Z,3.50
2018-01-15T11:41:54.485Z,3.50
2018-01-15T11:44:22.104Z,3.50
2018-01-15T11:46:49.675Z,3.50
2018-01-15T11:49:17.251Z,3.50
2018-01-15T11:51:44.873Z,3.50
2018-01-15T11:54:13.192Z,3.50
2018-01-15T11:56:40.782Z,3.50
2018-01-15T11:59:08.340Z,3.50
2018-01-15T12:01:35.933Z,3.50
2018-01-15T12:04:03.494Z,3.50
2018-01-15T12:06:31.218Z,3.50
2018-01-15T12:08:59.591Z,3.50
2018-01-15T12:11:28.937Z,3.50
2018-01-15T12:13:56.541Z,3.50
2018-01-15T12:16:24.090Z,3.50
2018-01-15T12:18:51.738Z,3.50
2018-01-15T12:21:19.329Z,3.50
2018-01-15T12:23:47.083Z,3.50
2018-01-15T12:26:14.649Z,3.60
2018-01-15T12:28:42.220Z,3.60
2018-01-15T12:31:09.804Z,3.70
2018-01-15T12:33:37.557Z,3.80
2018-01-15T12:36:05.163Z,3.90
2018-01-15T12:38:35.001Z,4.00
2018-01-15T12:41:02.558Z,4.00
2018-01-15T12:43:30.155Z,4.00
2018-01-15T12:45:57.740Z,3.90
2018-01-15T12:48:25.340Z,3.90
2018-01-15T12:50:52.906Z,4.00
2018-01-15T12:53:20.515Z,4.00
2018-01-15T12:55:48.841Z,4.10
2018-01-15T12:58:16.624Z,4.10
2018-01-15T13:00:44.211Z,4.10
2018-01-15T13:03:11.940Z,4.10
2018-01-15T13:05:50.397Z,4.20
2018-01-15T13:08:29.621Z,4.20
2018-01-15T13:10:57.989Z,4.20
2018-01-15T13:13:25.544Z,4.10
2018-01-15T13:15:53.628Z,4.20
2018-01-15T13:18:21.954Z,4.10
2018-01-15T13:20:49.499Z,4.10
2018-01-15T13:23:17.104Z,4.10
2018-01-15T13:25:44.642Z,4.00
2018-01-15T13:28:12.247Z,4.00
2018-01-15T13:30:39.810Z,4.00
2018-01-15T13:33:08.124Z,3.90
2018-01-15T13:35:35.830Z,3.90
2018-01-15T13:38:03.377Z,3.90
2018-01-15T13:40:30.957Z,3.90
2018-01-15T13:42:58.518Z,3.90
2018-01-15T13:45:26.886Z,4.00
2018-01-15T13:47:54.467Z,3.90
2018-01-15T13:50:22.825Z,4.10
2018-01-15T13:52:50.706Z,4.10
2018-01-15T13:55:18.270Z,4.10
2018-01-15T13:57:46.618Z,4.20
2018-01-15T14:00:14.167Z,4.20
2018-01-15T14:02:41.775Z,4.30
2018-01-15T14:05:09.339Z,4.40
2018-01-15T14:07:36.940Z,4.40
2018-01-15T14:10:04.770Z,4.50
2018-01-15T14:12:32.325Z,4.50
2018-01-15T14:14:59.948Z,4.50
2018-01-15T14:17:27.505Z,4.50
2018-01-15T14:19:55.092Z,4.50
2018-01-15T14:22:23.404Z,4.50
2018-01-15T14:24:51.044Z,4.50
2018-01-15T14:27:18.619Z,4.40
2018-01-15T14:29:46.170Z,4.40
2018-01-15T14:32:13.799Z,4.40
2018-01-15T14:34:42.622Z,4.40
2018-01-15T14:37:11.913Z,4.30
2018-01-15T14:39:39.487Z,4.30
2018-01-15T14:42:07.122Z,4.30
2018-01-15T14:44:35.440Z,4.30
2018-01-15T14:47:03.137Z,4.30
2018-01-15T14:49:30.704Z,4.30
2018-01-15T14:51:59.035Z,4.30
2018-01-15T14:54:26.624Z,4.30
2018-01-15T14:56:54.180Z,4.30
2018-01-15T14:59:21.810Z,4.20
2018-01-15T15:01:49.381Z,4.20
2018-01-15T15:04:16.992Z,4.20
2018-01-15T15:06:44.655Z,4.20
2018-01-15T15:09:12.216Z,4.10
2018-01-15T15:11:41.074Z,4.10
2018-01-15T15:14:08.651Z,4.10
2018-01-15T15:16:36.223Z,4.00
2018-01-15T15:19:04.921Z,3.90
2018-01-15T15:21:32.491Z,3.80
2018-01-15T15:24:00.113Z,3.80
2018-01-15T15:26:27.634Z,3.70
2018-01-15T15:28:55.462Z,3.70
2018-01-15T15:31:23.085Z,3.60
2018-01-15T15:33:50.637Z,3.60
2018-01-15T15:36:18.460Z,3.50
2018-01-15T15:38:46.191Z,3.50
2018-01-15T15:41:14.551Z,3.40
2018-01-15T15:43:42.159Z,3.40
2018-01-15T15:46:09.773Z,3.40
2018-01-15T15:48:37.348Z,3.40
2018-01-15T15:51:04.905Z,3.40
2018-01-15T15:53:33.322Z,3.40
2018-01-15T15:56:00.892Z,3.30
2018-01-15T15:58:28.572Z,3.40
2018-01-15T16:00:56.108Z,3.40
2018-01-15T16:03:23.874Z,3.40
2018-01-15T16:05:51.496Z,3.30
2018-01-15T16:08:19.076Z,3.30
2018-01-15T16:10:46.686Z,3.30
2018-01-15T16:13:14.505Z,3.20
2018-01-15T16:15:42.127Z,3.20
2018-01-15T16:18:09.725Z,3.20
2018-01-15T16:20:37.393Z,3.20
2018-01-15T16:23:04.961Z,3.20
2018-01-15T16:25:32.583Z,3.20
2018-01-15T16:28:00.904Z,3.10
2018-01-15T16:30:29.942Z,3.10
2018-01-15T16:32:57.498Z,3.10
2018-01-15T16:35:25.065Z,3.10
2018-01-15T16:37:52.885Z,3.00
2018-01-15T16:40:20.456Z,3.00
2018-01-15T16:42:48.394Z,3.00
2018-01-15T16:45:16.169Z,2.90
2018-01-15T16:47:43.709Z,2.90
2018-01-15T16:50:18.271Z,2.80
2018-01-15T16:52:45.844Z,2.80
2018-01-15T16:55:13.444Z,2.80
2018-01-15T16:57:41.772Z,2.80
2018-01-15T17:00:09.403Z,2.80
2018-01-15T17:02:36.983Z,2.70
2018-01-15T17:05:04.537Z,2.80
2018-01-15T17:07:32.171Z,2.80
2018-01-15T17:09:59.729Z,2.80
2018-01-15T17:12:27.374Z,2.80
2018-01-15T17:14:55.007Z,2.80
2018-01-15T17:17:22.628Z,2.90
2018-01-15T17:19:51.050Z,3.00
2018-01-15T17:22:18.769Z,3.00
2018-01-15T17:24:46.417Z,3.00
2018-01-15T17:27:15.334Z,3.10
2018-01-15T17:29:42.931Z,3.10
2018-01-15T17:32:10.688Z,3.10
2018-01-15T17:34:38.736Z,3.10
2018-01-15T17:37:06.298Z,3.10
2018-01-15T17:39:34.469Z,3.20
2018-01-15T17:42:02.063Z,3.10
2018-01-15T17:44:29.638Z,3.20
2018-01-15T17:46:58.007Z,3.20
2018-01-15T17:49:25.568Z,3.20
2018-01-15T17:51:54.467Z,3.20
2018-01-15T17:54:22.036Z,3.30
2018-01-15T17:56:51.354Z,3.30
2018-01-15T17:59:19.190Z,3.30
2018-01-15T18:01:47.521Z,3.30
2018-01-15T18:04:15.194Z,3.30
2018-01-15T18:06:42.759Z,3.30
2018-01-15T18:09:10.372Z,3.30
2018-01-15T18:11:37.923Z,3.30
2018-01-15T18:14:05.487Z,3.30
2018-01-15T18:16:33.164Z,3.30
2018-01-15T18:19:00.737Z,3.30
2018-01-15T18:21:29.115Z,3.30
2018-01-15T18:23:56.932Z,3.30
2018-01-15T18:26:25.295Z,3.30
2018-01-15T18:28:52.873Z,3.30
2018-01-15T18:31:21.254Z,3.30
2018-01-15T18:33:48.840Z,3.30
2018-01-15T18:36:16.410Z,3.30
2018-01-15T18:38:44.001Z,3.30
2018-01-15T18:41:11.529Z,3.30
2018-01-15T18:43:39.122Z,3.30
2018-01-15T18:46:06.717Z,3.30
2018-01-15T18:48:35.123Z,3.30
2018-01-15T18:51:02.688Z,3.30
2018-01-15T18:53:30.253Z,3.30
2018-01-15T18:55:57.863Z,3.30
2018-01-15T18:58:25.446Z,3.30
2018-01-15T19:00:53.095Z,3.30
2018-01-15T19:03:21.438Z,3.30
2018-01-15T19:05:49.064Z,3.30
2018-01-15T19:08:16.637Z,3.30
2018-01-15T19:10:44.162Z,3.30
2018-01-15T19:13:11.776Z,3.40
2018-01-15T19:15:39.365Z,3.40
2018-01-15T19:18:07.011Z,3.40
2018-01-15T19:20:34.599Z,3.40
2018-01-15T19:23:02.985Z,3.40
2018-01-15T19:25:30.581Z,3.40
2018-01-15T19:27:58.149Z,3.40
2018-01-15T19:30:25.762Z,3.40
2018-01-15T19:32:54.092Z,3.40
2018-01-15T19:35:27.454Z,3.40
2018-01-15T19:37:55.035Z,3.40
2018-01-15T19:40:23.421Z,3.40
2018-01-15T19:42:51.000Z,3.40
2018-01-15T19:45:24.278Z,3.40
2018-01-15T19:47:57.472Z,3.40
2018-01-15T19:50:30.623Z,3.30
2018-01-15T19:53:03.886Z,3.30
2018-01-15T19:55:37.188Z,3.20
2018-01-15T19:58:11.103Z,3.10
2018-01-15T20:00:44.298Z,3.10
2018-01-15T20:03:17.385Z,3.10
2018-01-15T20:05:50.625Z,3.00
2018-01-15T20:08:23.924Z,3.00
2018-01-15T20:10:53.324Z,2.90
2018-01-15T20:13:20.903Z,2.90
2018-01-15T20:15:48.486Z,2.90
2018-01-15T20:18:16.098Z,2.90
2018-01-15T20:20:43.656Z,2.90
2018-01-15T20:23:11.250Z,2.90
2018-01-15T20:25:39.732Z,2.90
2018-01-15T20:28:07.331Z,2.90
2018-01-15T20:30:34.907Z,2.90
2018-01-15T20:33:02.525Z,2.90
2018-01-15T20:35:30.846Z,2.90
2018-01-15T20:37:58.408Z,2.90
2018-01-15T20:40:26.019Z,2.90
2018-01-15T20:42:53.611Z,3.00
2018-01-15T20:45:21.240Z,3.00
2018-01-15T20:47:49.567Z,3.00
2018-01-15T20:50:17.194Z,3.00
2018-01-15T20:52:44.769Z,3.00
2018-01-15T20:55:12.316Z,3.00
2018-01-15T20:57:39.909Z,3.00
2018-01-15T21:00:07.551Z,2.90
2018-01-15T21:02:35.176Z,3.00
2018-01-15T21:05:03.546Z,2.90
2018-01-15T21:07:31.136Z,2.90
2018-01-15T21:09:58.760Z,2.90
2018-01-15T21:12:26.397Z,2.90
2018-01-15T21:14:54.004Z,2.90
2018-01-15T21:17:22.444Z,2.90
2018-01-15T21:19:50.076Z,2.90
2018-01-15T21:22:17.626Z,2.90
2018-01-15T21:24:45.591Z,2.90
2018-01-15T21:27:13.177Z,2.90
2018-01-15T21:29:40.740Z,2.90
2018-01-15T21:32:08.346Z,2.90
2018-01-15T21:34:36.681Z,2.90
2018-01-15T21:37:04.269Z,2.90
2018-01-15T21:39:31.832Z,2.90
2018-01-15T21:41:59.442Z,2.90
2018-01-15T21:44:27.022Z,2.80
2018-01-15T21:46:54.617Z,2.90
2018-01-15T21:49:23.036Z,2.80
2018-01-15T21:51:50.646Z,2.80
2018-01-15T21:54:18.268Z,2.90
2018-01-15T21:56:45.875Z,2.90
2018-01-15T21:59:13.598Z,2.90
2018-01-15T22:01:41.170Z,2.90
2018-01-15T22:04:08.869Z,2.90
2018-01-15T22:09:11.161Z,2.90
2018-01-15T22:11:39.502Z,2.90
2018-01-15T22:14:07.078Z,2.90
2018-01-15T22:16:34.677Z,2.90
2018-01-15T22:19:02.272Z,2.90
2018-01-15T22:21:29.865Z,2.90
2018-01-15T22:23:59.354Z,2.90
2018-01-15T22:26:27.056Z,2.90
2018-01-15T22:28:54.631Z,2.90
2018-01-15T22:31:22.240Z,2.90
2018-01-15T22:33:49.957Z,2.90
2018-01-15T22:36:17.496Z,2.90
2018-01-15T22:38:45.871Z,2.90
2018-01-15T22:41:13.412Z,2.90
2018-01-15T22:43:41.057Z,2.90
2018-01-15T22:46:08.617Z,2.90
2018-01-15T22:48:36.182Z,2.90
2018-01-15T22:51:06.303Z,2.90
2018-01-15T22:53:33.862Z,2.90
2018-01-15T22:56:01.459Z,2.90
2018-01-15T22:58:29.081Z,2.90
2018-01-15T23:00:56.673Z,2.90
2018-01-15T23:03:24.216Z,2.90
2018-01-15T23:05:52.528Z,2.90
2018-01-15T23:08:20.119Z,2.90
2018-01-15T23:10:47.660Z,2.90
2018-01-15T23:13:15.245Z,2.90
2018-01-15T23:15:42.954Z,2.90
2018-01-15T23:18:10.570Z,2.80
2018-01-15T23:20:38.137Z,2.80
2018-01-15T23:23:05.690Z,2.80
2018-01-15T23:25:33.288Z,2.80
2018-01-15T23:28:00.873Z,2.80
2018-01-15T23:30:28.708Z,2.80
2018-01-15T23:32:57.025Z,2.80
2018-01-15T23:35:24.570Z,2.80
2018-01-15T23:37:52.304Z,2.80
2018-01-15T23:40:20.612Z,2.80
2018-01-15T23:42:48.190Z,2.80
2018-01-15T23:45:15.748Z,2.80
2018-01-15T23:47:43.332Z,2.80
2018-01-15T23:50:10.896Z,2.70
2018-01-15T23:52:39.950Z,2.70
2018-01-15T23:55:07.534Z,2.70
2018-01-15T23:57:35.060Z,2.70
